createdAt,value
2023-10-18T00:01:00.200Z,3.77
2023-10-18T00:03:30.963Z,3.40
2023-10-18T00:05:59.533Z,3.57
2023-10-18T00:08:27.710Z,3.60
2023-10-18T00:10:54.770Z,3.53
2023-10-18T00:13:24.481Z,3.90
2023-10-18T00:15:54.291Z,3.80
2023-10-18T00:18:22.731Z,3.70
2023-10-18T00:20:59.960Z,3.53
2023-10-18T00:23:28.421Z,3.10
2023-10-18T00:25:56.377Z,3.43
2023-10-18T00:28:25.698Z,3.33
2023-10-18T00:30:53.749Z,3.20
2023-10-18T00:33:22.131Z,3.50
2023-10-18T00:35:49.086Z,3.10
2023-10-18T00:38:19.866Z,3.10
2023-10-18T00:40:51.363Z,3.70
2023-10-18T00:43:22.271Z,3.17
2023-10-18T00:45:53.081Z,3.17
2023-10-18T00:48:26.824Z,3.50
2023-10-18T00:50:56.224Z,3.40
2023-10-18T00:53:25.292Z,3.20
2023-10-18T00:55:58.625Z,3.47
2023-10-18T00:58:28.509Z,3.37
2023-10-18T01:00:59.793Z,3.40
2023-10-18T01:03:32.127Z,3.43
2023-10-18T01:06:01.838Z,2.90
2023-10-18T01:08:31.546Z,2.90
2023-10-18T01:11:06.103Z,3.40
2023-10-18T01:13:37.752Z,2.63
2023-10-18T01:16:15.439Z,3.03
2023-10-18T01:18:45.268Z,3.20
2023-10-18T01:21:19.148Z,2.93
2023-10-18T01:23:51.981Z,3.07
2023-10-18T01:26:22.421Z,3.20
2023-10-18T01:28:52.998Z,3.17
2023-10-18T01:31:21.610Z,3.00
2023-10-18T01:33:51.723Z,3.37
2023-10-18T01:36:22.138Z,2.70
2023-10-18T01:38:53.250Z,2.80
2023-10-18T01:41:28.346Z,3.20
2023-10-18T01:43:57.142Z,2.97
2023-10-18T01:46:25.637Z,2.97
2023-10-18T01:48:53.724Z,2.97
2023-10-18T01:51:21.837Z,2.77
2023-10-18T01:53:51.897Z,2.60
2023-10-18T01:56:22.793Z,2.83
2023-10-18T01:58:52.308Z,2.80
2023-10-18T02:01:20.868Z,2.80
2023-10-18T02:03:51.626Z,3.23
2023-10-18T02:06:21.615Z,2.40
2023-10-18T02:08:51.055Z,2.63
2023-10-18T02:11:19.175Z,2.80
2023-10-18T02:13:47.266Z,2.70
2023-10-18T02:16:17.220Z,2.83
2023-10-18T02:18:50.948Z,2.87
2023-10-18T02:21:22.410Z,3.20
2023-10-18T02:23:52.284Z,2.70
2023-10-18T02:26:33.054Z,3.03
2023-10-18T02:29:06.900Z,2.90
2023-10-18T02:31:36.325Z,2.83
2023-10-18T02:34:15.115Z,3.07
2023-10-18T02:36:50.855Z,2.73
2023-10-18T02:39:24.493Z,2.90
2023-10-18T02:41:54.856Z,2.90
2023-10-18T02:44:23.987Z,2.90
2023-10-18T02:46:56.874Z,3.10
2023-10-18T02:49:28.525Z,3.00
2023-10-18T02:51:58.424Z,3.17
2023-10-18T02:54:26.747Z,3.00
2023-10-18T02:56:55.171Z,2.80
2023-10-18T02:59:25.983Z,3.40
2023-10-18T03:01:57.815Z,2.80
2023-10-18T03:04:28.464Z,2.87
2023-10-18T03:06:57.281Z,3.00
2023-10-18T03:09:30.075Z,2.70
2023-10-18T03:11:59.321Z,3.27
2023-10-18T03:14:40.687Z,2.50
2023-10-18T03:17:20.357Z,3.30
2023-10-18T03:19:51.323Z,2.73
2023-10-18T03:22:23.082Z,3.00
2023-10-18T03:24:52.209Z,2.90
2023-10-18T03:27:20.427Z,2.60
2023-10-18T03:29:48.560Z,2.90
2023-10-18T03:32:20.260Z,2.50
2023-10-18T03:34:48.458Z,2.70
2023-10-18T03:37:22.636Z,2.23
2023-10-18T03:39:53.663Z,2.53
2023-10-18T03:42:34.425Z,2.90
2023-10-18T03:45:10.751Z,2.40
2023-10-18T03:47:40.312Z,2.30
2023-10-18T03:50:14.537Z,2.50
2023-10-18T03:52:42.933Z,3.03
2023-10-18T03:55:16.979Z,2.83
2023-10-18T03:57:44.972Z,2.23
2023-10-18T04:00:39.541Z,2.67
2023-10-18T04:03:17.087Z,2.93
2023-10-18T04:05:46.271Z,2.70
2023-10-18T04:08:16.201Z,2.50
2023-10-18T04:10:44.667Z,2.80
2023-10-18T04:13:14.071Z,2.70
2023-10-18T04:15:46.967Z,2.70
2023-10-18T04:18:27.258Z,2.50
2023-10-18T04:20:59.831Z,2.67
2023-10-18T04:23:28.208Z,2.50
2023-10-18T04:26:00.182Z,2.50
2023-10-18T04:28:30.033Z,2.53
2023-10-18T04:31:01.667Z,2.60
2023-10-18T04:33:37.332Z,2.80
2023-10-18T04:36:11.884Z,2.90
2023-10-18T04:38:43.989Z,2.53
2023-10-18T04:41:23.705Z,2.83
2023-10-18T04:43:53.108Z,2.40
2023-10-18T04:46:27.171Z,3.00
2023-10-18T04:49:02.259Z,2.80
2023-10-18T04:51:34.535Z,3.00
2023-10-18T04:54:04.421Z,2.73
2023-10-18T04:56:35.158Z,3.30
2023-10-18T04:59:07.524Z,3.50
2023-10-18T05:01:37.526Z,3.53
2023-10-18T05:04:21.191Z,2.77
2023-10-18T05:06:55.283Z,3.30
2023-10-18T05:09:32.742Z,3.00
2023-10-18T05:12:05.521Z,2.60
2023-10-18T05:14:54.366Z,3.47
2023-10-18T05:17:24.441Z,3.00
2023-10-18T05:19:56.995Z,2.70
2023-10-18T05:22:26.144Z,3.97
2023-10-18T05:25:11.892Z,3.07
2023-10-18T05:27:47.150Z,3.13
2023-10-18T05:30:17.108Z,3.90
2023-10-18T05:32:51.709Z,3.00
2023-10-18T05:35:27.799Z,3.10
2023-10-18T05:38:00.607Z,3.30
2023-10-18T05:40:47.446Z,3.17
2023-10-18T05:43:23.615Z,2.97
2023-10-18T05:45:57.156Z,4.27
2023-10-18T05:48:25.912Z,3.53
2023-10-18T05:51:03.452Z,3.53
2023-10-18T05:53:32.296Z,3.50
2023-10-18T05:56:00.223Z,3.37
2023-10-18T05:58:28.443Z,3.80
2023-10-18T06:01:03.673Z,3.30
2023-10-18T06:03:40.271Z,3.53
2023-10-18T06:06:10.286Z,3.97
2023-10-18T06:08:38.750Z,3.50
2023-10-18T06:11:10.264Z,3.73
2023-10-18T06:13:38.481Z,4.13
2023-10-18T06:16:19.305Z,3.80
2023-10-18T06:18:47.935Z,3.17
2023-10-18T06:21:21.167Z,3.30
2023-10-18T06:23:56.786Z,3.73
2023-10-18T06:26:32.181Z,3.47
2023-10-18T06:29:09.894Z,3.70
2023-10-18T06:31:44.326Z,4.00
2023-10-18T06:34:16.785Z,3.80
2023-10-18T06:36:48.723Z,4.00
2023-10-18T06:39:28.958Z,3.67
2023-10-18T06:41:57.597Z,3.80
2023-10-18T06:44:28.853Z,4.37
2023-10-18T06:46:58.638Z,4.13
2023-10-18T06:49:27.587Z,4.23
2023-10-18T06:51:58.486Z,4.13
2023-10-18T06:54:31.975Z,4.30
2023-10-18T06:57:10.705Z,4.10
2023-10-18T06:59:38.792Z,3.80
2023-10-18T07:02:07.988Z,4.27
2023-10-18T07:04:39.015Z,4.93
2023-10-18T07:07:12.577Z,4.23
2023-10-18T07:09:43.221Z,4.47
2023-10-18T07:12:13.130Z,4.23
2023-10-18T07:14:41.117Z,3.63
2023-10-18T07:17:10.883Z,4.40
2023-10-18T07:19:49.060Z,4.17
2023-10-18T07:22:22.666Z,4.57
2023-10-18T07:24:55.410Z,4.90
2023-10-18T07:27:24.494Z,4.80
2023-10-18T07:29:53.234Z,4.63
2023-10-18T07:32:25.287Z,4.40
2023-10-18T07:34:55.373Z,5.10
2023-10-18T07:37:26.409Z,4.67
2023-10-18T07:39:58.864Z,5.10
2023-10-18T07:42:28.720Z,4.73
2023-10-18T07:45:04.599Z,4.60
2023-10-18T07:47:33.708Z,4.73
2023-10-18T07:50:02.263Z,4.60
2023-10-18T07:52:31.541Z,4.77
2023-10-18T07:54:59.436Z,4.67
2023-10-18T07:57:34.692Z,5.43
2023-10-18T08:00:16.978Z,5.27
2023-10-18T08:02:45.190Z,5.53
2023-10-18T08:05:12.356Z,5.33
2023-10-18T08:07:50.035Z,5.40
2023-10-18T08:10:21.082Z,5.40
2023-10-18T08:12:50.197Z,5.17
2023-10-18T08:15:18.593Z,5.73
2023-10-18T08:17:47.727Z,5.40
2023-10-18T08:20:33.201Z,5.60
2023-10-18T08:23:18.236Z,5.60
2023-10-18T08:25:52.522Z,5.70
2023-10-18T08:28:20.577Z,5.90
2023-10-18T08:31:02.512Z,6.37
2023-10-18T08:33:30.460Z,5.43
2023-10-18T08:36:07.642Z,5.73
2023-10-18T08:38:37.237Z,5.93
2023-10-18T08:41:15.017Z,6.33
2023-10-18T08:43:59.005Z,6.27
2023-10-18T08:46:28.049Z,6.53
2023-10-18T08:48:58.230Z,6.53
2023-10-18T08:51:28.903Z,6.17
2023-10-18T08:54:01.868Z,5.97
2023-10-18T08:56:34.102Z,6.13
2023-10-18T08:59:11.940Z,6.10
2023-10-18T09:02:00.264Z,6.63
2023-10-18T09:04:29.932Z,5.87
2023-10-18T09:07:01.016Z,5.83
2023-10-18T09:09:36.521Z,6.30
2023-10-18T09:12:15.756Z,5.67
2023-10-18T09:14:51.681Z,6.50
2023-10-18T09:17:23.967Z,5.83
2023-10-18T09:19:56.812Z,6.20
2023-10-18T09:22:24.962Z,6.63
2023-10-18T09:24:56.077Z,5.67
2023-10-18T09:27:24.678Z,6.23
2023-10-18T09:29:54.124Z,6.00
2023-10-18T09:32:33.508Z,5.20
2023-10-18T09:35:08.394Z,6.10
2023-10-18T09:37:37.934Z,5.93
2023-10-18T09:40:13.489Z,5.67
2023-10-18T09:42:41.521Z,6.20
2023-10-18T09:45:10.730Z,5.20
2023-10-18T09:47:38.902Z,5.73
2023-10-18T09:50:10.746Z,5.53
2023-10-18T09:52:52.343Z,5.13
2023-10-18T09:55:22.141Z,5.57
2023-10-18T09:58:03.782Z,5.50
2023-10-18T10:00:42.480Z,5.33
2023-10-18T10:03:11.924Z,5.00
2023-10-18T10:05:44.202Z,5.40
2023-10-18T10:08:13.903Z,4.80
2023-10-18T10:10:46.990Z,4.63
2023-10-18T10:13:20.807Z,4.63
2023-10-18T10:15:55.696Z,4.00
2023-10-18T10:18:31.569Z,4.17
2023-10-18T10:21:06.474Z,4.23
2023-10-18T10:23:36.453Z,4.07
2023-10-18T10:26:31.388Z,4.20
2023-10-18T10:29:35.082Z,4.30
2023-10-18T10:32:06.087Z,3.97
2023-10-18T10:34:38.832Z,4.07
2023-10-18T10:37:11.167Z,3.97
2023-10-18T10:39:50.824Z,4.00
2023-10-18T10:42:42.634Z,3.73
2023-10-18T10:45:24.969Z,3.83
2023-10-18T10:47:53.078Z,3.30
2023-10-18T10:50:43.825Z,3.57
2023-10-18T10:53:12.100Z,3.90
2023-10-18T10:55:40.110Z,3.37
2023-10-18T10:58:18.058Z,3.40
2023-10-18T11:01:05.896Z,3.17
2023-10-18T11:03:54.200Z,3.87
2023-10-18T11:06:23.795Z,4.10
2023-10-18T11:08:53.319Z,3.40
2023-10-18T11:11:23.132Z,3.43
2023-10-18T11:13:53.083Z,3.20
2023-10-18T11:16:23.002Z,3.30
2023-10-18T11:18:53.878Z,2.90
2023-10-18T11:21:25.659Z,3.17
2023-10-18T11:23:58.148Z,6.57
2023-10-18T11:26:27.132Z,3.40
2023-10-18T11:28:58.357Z,3.57
2023-10-18T11:31:30.426Z,2.50
2023-10-18T11:34:07.292Z,3.23
2023-10-18T11:36:35.998Z,3.43
2023-10-18T11:39:19.622Z,2.93
2023-10-18T11:41:53.454Z,2.90
2023-10-18T11:44:32.799Z,3.30
2023-10-18T11:47:09.894Z,3.20
2023-10-18T11:49:39.653Z,4.00
2023-10-18T11:52:13.484Z,3.13
2023-10-18T11:54:42.225Z,2.73
2023-10-18T11:57:26.982Z,2.63
2023-10-18T11:59:57.641Z,2.60
2023-10-18T12:02:29.453Z,3.07
2023-10-18T12:04:58.730Z,2.73
2023-10-18T12:07:27.234Z,2.67
2023-10-18T12:09:56.377Z,2.70
2023-10-18T12:12:25.679Z,2.80
2023-10-18T12:14:53.821Z,2.60
2023-10-18T12:17:23.965Z,2.40
2023-10-18T12:19:53.722Z,2.63
2023-10-18T12:22:24.853Z,2.20
2023-10-18T12:24:52.993Z,2.50
2023-10-18T12:27:34.762Z,2.20
2023-10-18T12:30:24.696Z,2.33
2023-10-18T12:33:00.244Z,2.67
2023-10-18T12:35:30.420Z,2.53
2023-10-18T12:37:58.876Z,2.23
2023-10-18T12:40:32.464Z,2.53
2023-10-18T12:43:01.694Z,2.57
2023-10-18T12:45:30.100Z,2.50
2023-10-18T12:48:13.421Z,2.40
2023-10-18T12:50:46.116Z,2.43
2023-10-18T12:56:32.409Z,2.33
2023-10-18T12:59:13.166Z,2.30
2023-10-18T13:01:48.415Z,2.10
2023-10-18T13:04:19.893Z,2.03
2023-10-18T13:06:48.984Z,2.30
2023-10-18T13:09:19.690Z,2.77
2023-10-18T13:12:01.529Z,2.33
2023-10-18T13:14:31.723Z,2.40
2023-10-18T13:17:03.833Z,2.07
2023-10-18T13:19:34.155Z,2.27
2023-10-18T13:22:05.607Z,2.40
2023-10-18T13:24:33.909Z,2.47
2023-10-18T13:27:02.195Z,2.70
2023-10-18T13:29:33.210Z,2.47
2023-10-18T13:32:08.001Z,2.40
2023-10-18T13:34:41.059Z,2.17
2023-10-18T13:37:13.888Z,2.50
2023-10-18T13:39:48.913Z,2.13
2023-10-18T13:42:19.952Z,2.40
2023-10-18T13:44:49.485Z,2.10
2023-10-18T13:47:18.431Z,2.40
2023-10-18T13:49:47.905Z,2.50
2023-10-18T13:52:16.305Z,2.10
2023-10-18T13:54:44.389Z,1.97
2023-10-18T13:57:12.322Z,2.27
2023-10-18T13:59:40.335Z,2.43
2023-10-18T14:02:08.725Z,2.27
2023-10-18T14:04:37.106Z,2.60
2023-10-18T14:07:07.102Z,2.10
2023-10-18T14:09:36.513Z,2.40
2023-10-18T14:12:06.144Z,2.67
2023-10-18T14:14:37.638Z,2.37
2023-10-18T14:17:06.001Z,2.63
2023-10-18T14:19:34.692Z,2.57
2023-10-18T14:22:02.873Z,2.40
2023-10-18T14:24:32.899Z,2.20
2023-10-18T14:27:06.777Z,2.33
2023-10-18T14:29:34.712Z,2.23
2023-10-18T14:32:03.918Z,2.33
2023-10-18T14:34:32.033Z,2.50
2023-10-18T14:36:59.923Z,2.60
2023-10-18T14:39:38.784Z,2.13
2023-10-18T14:42:09.393Z,2.30
2023-10-18T14:44:38.379Z,2.37
2023-10-18T14:47:07.347Z,2.97
2023-10-18T14:49:35.582Z,2.40
2023-10-18T14:52:12.201Z,2.20
2023-10-18T14:54:42.191Z,2.80
2023-10-18T14:57:11.677Z,2.83
2023-10-18T14:59:40.069Z,2.37
2023-10-18T15:02:08.820Z,2.40
2023-10-18T15:04:36.931Z,2.57
2023-10-18T15:07:04.892Z,2.43
2023-10-18T15:09:32.836Z,2.20
2023-10-18T15:12:00.807Z,2.60
2023-10-18T15:14:33.950Z,2.30
2023-10-18T15:17:03.355Z,2.53
2023-10-18T15:19:31.647Z,2.50
2023-10-18T15:22:00.779Z,2.67
2023-10-18T15:24:28.858Z,2.40
2023-10-18T15:26:57.110Z,2.70
2023-10-18T15:29:25.103Z,2.40
2023-10-18T15:31:55.418Z,3.13
2023-10-18T15:34:23.424Z,2.60
2023-10-18T15:36:51.373Z,2.60
2023-10-18T15:39:20.382Z,2.67
2023-10-18T15:41:50.121Z,2.60
2023-10-18T15:44:18.193Z,2.57
2023-10-18T15:46:48.718Z,2.30
2023-10-18T15:49:19.065Z,2.50
2023-10-18T15:51:50.199Z,2.70
2023-10-18T15:54:18.212Z,2.40
2023-10-18T15:56:46.493Z,2.37
2023-10-18T15:59:18.459Z,2.83
2023-10-18T16:01:55.929Z,2.90
2023-10-18T16:04:29.034Z,2.70
2023-10-18T16:06:57.427Z,2.90
2023-10-18T16:09:28.642Z,2.90
2023-10-18T16:11:57.120Z,2.30
2023-10-18T16:14:29.975Z,2.70
2023-10-18T16:17:02.316Z,3.00
2023-10-18T16:19:32.290Z,3.17
2023-10-18T16:22:00.348Z,2.80
2023-10-18T16:24:28.977Z,2.50
2023-10-18T16:26:57.259Z,2.63
2023-10-18T16:29:25.274Z,2.20
2023-10-18T16:31:53.262Z,2.50
2023-10-18T16:34:21.823Z,2.77
2023-10-18T16:36:51.281Z,2.43
2023-10-18T16:39:19.729Z,2.43
2023-10-18T16:41:48.217Z,2.70
2023-10-18T16:44:16.152Z,2.60
2023-10-18T16:46:44.173Z,2.60
2023-10-18T16:49:13.595Z,2.50
2023-10-18T16:51:41.992Z,2.60
2023-10-18T16:54:12.961Z,2.40
2023-10-18T16:56:42.662Z,2.70
2023-10-18T16:59:11.256Z,2.70
2023-10-18T17:01:39.691Z,2.30
2023-10-18T17:04:07.883Z,2.60
2023-10-18T17:06:35.850Z,2.50
2023-10-18T17:09:04.117Z,2.70
2023-10-18T17:11:34.199Z,2.40
2023-10-18T17:14:02.385Z,2.50
2023-10-18T17:16:31.119Z,2.70
2023-10-18T17:18:59.024Z,2.47
2023-10-18T17:21:27.193Z,2.67
2023-10-18T17:23:58.088Z,2.53
2023-10-18T17:26:26.874Z,2.63
2023-10-18T17:28:56.160Z,2.50
2023-10-18T17:31:24.115Z,3.03
2023-10-18T17:33:52.102Z,2.70
2023-10-18T17:36:21.531Z,2.80
2023-10-18T17:38:49.602Z,2.73
2023-10-18T17:41:17.998Z,2.57
2023-10-18T17:43:47.930Z,2.70
2023-10-18T17:46:17.518Z,2.60
2023-10-18T17:48:45.685Z,2.70
2023-10-18T17:51:13.672Z,2.50
2023-10-18T17:53:41.687Z,2.23
2023-10-18T17:56:12.878Z,2.97
2023-10-18T17:58:42.657Z,2.53
2023-10-18T18:01:21.800Z,2.77
2023-10-18T18:03:53.264Z,2.77
2023-10-18T18:06:21.748Z,2.60
2023-10-18T18:08:50.220Z,2.70
2023-10-18T18:11:26.428Z,3.10
2023-10-18T18:13:54.665Z,2.87
2023-10-18T18:16:24.155Z,2.80
2023-10-18T18:18:52.653Z,2.90
2023-10-18T18:21:22.573Z,2.47
2023-10-18T18:23:53.046Z,2.80
2023-10-18T18:26:23.761Z,2.40
2023-10-18T18:28:52.152Z,2.90
2023-10-18T18:31:20.231Z,3.00
2023-10-18T18:33:50.665Z,2.67
2023-10-18T18:36:18.567Z,2.53
2023-10-18T18:38:46.519Z,2.77
2023-10-18T18:41:16.276Z,2.97
2023-10-18T18:43:44.279Z,2.77
2023-10-18T18:46:18.116Z,2.53
2023-10-18T18:48:57.096Z,2.57
2023-10-18T18:51:24.981Z,3.13
2023-10-18T18:53:52.888Z,3.17
2023-10-18T18:56:22.157Z,2.63
2023-10-18T18:58:50.221Z,2.67
2023-10-18T19:01:19.255Z,2.80
2023-10-18T19:03:49.390Z,3.13
2023-10-18T19:06:18.748Z,2.67
2023-10-18T19:08:46.773Z,3.30
2023-10-18T19:11:24.451Z,3.37
2023-10-18T19:13:52.891Z,2.83
2023-10-18T19:16:21.174Z,3.00
2023-10-18T19:18:49.336Z,2.47
2023-10-18T19:21:19.171Z,2.63
2023-10-18T19:23:49.072Z,2.90
2023-10-18T19:26:18.304Z,2.77
2023-10-18T19:28:46.993Z,2.90
2023-10-18T19:31:17.655Z,2.80
2023-10-18T19:33:46.836Z,3.00
2023-10-18T19:36:16.455Z,2.53
2023-10-18T19:38:46.029Z,3.07
2023-10-18T19:41:15.312Z,2.73
2023-10-18T19:43:43.357Z,2.87
2023-10-18T19:46:11.647Z,2.83
2023-10-18T19:48:40.051Z,2.50
2023-10-18T19:51:08.731Z,3.13
2023-10-18T19:53:38.837Z,2.90
2023-10-18T19:56:12.573Z,2.80
2023-10-18T19:58:40.671Z,3.37
2023-10-18T20:01:08.628Z,3.00
2023-10-18T20:03:36.635Z,3.00
2023-10-18T20:06:04.858Z,3.20
2023-10-18T20:08:32.835Z,3.13
2023-10-18T20:11:05.242Z,3.87
2023-10-18T20:13:34.559Z,3.57
2023-10-18T20:16:02.564Z,3.37
2023-10-18T20:18:31.664Z,3.70
2023-10-18T20:21:00.755Z,3.57
2023-10-18T20:23:28.812Z,3.63
2023-10-18T20:26:01.264Z,3.60
2023-10-18T20:28:30.403Z,3.87
2023-10-18T20:31:01.657Z,4.10
2023-10-18T20:33:30.590Z,3.97
2023-10-18T20:35:58.833Z,4.10
2023-10-18T20:38:27.496Z,3.97
2023-10-18T20:40:56.399Z,4.33
2023-10-18T20:43:26.372Z,4.10
2023-10-18T20:46:12.090Z,3.77
2023-10-18T20:48:41.394Z,4.47
2023-10-18T20:51:09.458Z,4.50
2023-10-18T20:53:38.266Z,4.50
2023-10-18T20:56:07.768Z,4.33
2023-10-18T20:58:36.604Z,4.30
2023-10-18T21:01:13.045Z,4.27
2023-10-18T21:03:44.491Z,4.60
2023-10-18T21:06:15.504Z,4.37
2023-10-18T21:08:43.871Z,4.57
2023-10-18T21:11:13.340Z,4.37
2023-10-18T21:13:42.160Z,4.77
2023-10-18T21:16:13.549Z,5.10
2023-10-18T21:18:43.119Z,4.80
2023-10-18T21:21:15.038Z,5.60
2023-10-18T21:23:43.654Z,5.23
2023-10-18T21:26:13.235Z,5.20
2023-10-18T21:28:42.704Z,5.20
2023-10-18T21:31:14.878Z,4.73
2023-10-18T21:33:43.039Z,5.60
2023-10-18T21:36:12.529Z,5.37
2023-10-18T21:38:41.617Z,5.37
2023-10-18T21:41:13.649Z,5.70
2023-10-18T21:43:41.725Z,5.67
2023-10-18T21:46:11.785Z,4.87
2023-10-18T21:48:40.249Z,5.10
2023-10-18T21:51:10.553Z,5.87
2023-10-18T21:53:39.170Z,5.97
2023-10-18T21:56:08.144Z,6.20
2023-10-18T21:58:40.513Z,5.83
2023-10-18T22:01:28.145Z,6.93
2023-10-18T22:04:04.364Z,5.80
2023-10-18T22:06:34.632Z,6.40
2023-10-18T22:09:09.127Z,6.13
2023-10-18T22:11:37.300Z,6.37
2023-10-18T22:14:19.029Z,6.30
2023-10-18T22:16:51.554Z,6.50
2023-10-18T22:19:21.150Z,5.97
2023-10-18T22:21:51.807Z,5.77
2023-10-18T22:24:24.670Z,6.70
2023-10-18T22:26:52.593Z,6.57
2023-10-18T22:29:20.659Z,6.30
2023-10-18T22:31:52.578Z,6.30
2023-10-18T22:34:27.363Z,6.07
2023-10-18T22:36:56.754Z,6.33
2023-10-18T22:39:31.793Z,6.40
2023-10-18T22:41:59.751Z,6.43
2023-10-18T22:44:34.539Z,6.50
2023-10-18T22:47:08.612Z,6.10
2023-10-18T22:49:38.945Z,6.97
2023-10-18T22:52:24.083Z,6.60
2023-10-18T22:54:54.977Z,6.30
2023-10-18T22:57:27.146Z,6.73
2023-10-18T22:59:56.850Z,6.70
2023-10-18T23:02:28.824Z,6.63
2023-10-18T23:04:58.145Z,6.77
2023-10-18T23:07:33.298Z,6.73
2023-10-18T23:10:09.734Z,6.97
2023-10-18T23:12:43.800Z,7.00
2023-10-18T23:15:20.671Z,7.00
2023-10-18T23:17:53.315Z,7.00
2023-10-18T23:20:34.985Z,7.23
2023-10-18T23:23:06.949Z,7.40
2023-10-18T23:25:54.958Z,7.20
2023-10-18T23:28:31.867Z,7.63
2023-10-18T23:31:08.024Z,7.57
2023-10-18T23:33:45.870Z,7.77
2023-10-18T23:36:25.993Z,7.23
2023-10-18T23:38:55.179Z,7.77
2023-10-18T23:41:30.546Z,7.83
2023-10-18T23:44:09.805Z,8.27
2023-10-18T23:46:59.486Z,7.77
2023-10-18T23:49:30.628Z,7.93
2023-10-18T23:52:32.764Z,8.20
2023-10-18T23:55:12.255Z,8.10
2023-10-18T23:57:40.298Z,9.03
